Latest Weather Observations for Goulburn Airport

IDN60901

Issued at 8:01 pm EST Wednesday 12 August 2020 (issued every 10 minutes, with the page automatically refreshed every 10 minutes)

About weather observations | Map of Canberra area stations | Latest observations for Canberra area | Other Formats
Station Details ID: 070330 Name: GOULBURN AIRPORT AWS Lat: -34.81 Lon: 149.73 Height: 640.0 m
Data from the previous 72 hours. | See also: Recent months at Goulburn Airport
Date/Time
EST
Temp
°C
App
Temp
°C
Dew
Point
°C
Rel
Hum
%
Delta-T
°C
Wind Press
QNH
hPa
Press
MSL
hPa
Rain since
9am
mm
Dir  Spd
km/h
Gust
km/h
Spd
kts
Gust
kts
12/08:00pm 8.2 7.8 8.1 99 0.0 CALM 0 0 0 0 1013.3 1014.0 0.6
12/07:30pm 8.3 7.9 8.2 99 0.0 CALM 0 0 0 0 1013.3 1014.0 0.4
12/07:00pm 8.7 8.4 8.6 99 0.1 CALM 0 0 0 0 1013.1 1013.9 0.4
12/06:30pm 9.1 8.7 8.3 95 0.4 CALM 0 0 0 0 1012.9 1013.7 0.4
12/06:00pm 9.4 8.6 8.3 93 0.6 W 2 6 1 3 1012.6 1013.3 0.4
12/05:30pm 10.0 7.8 7.8 86 1.1 W 9 11 5 6 1012.7 1013.4 0.2
12/05:00pm 10.9 8.9 7.2 78 1.8 W 7 9 4 5 1012.3 1013.0 0.0
12/04:30pm 11.3 8.1 6.8 74 2.2 WNW 13 17 7 9 1012.1 1012.8 0.0
12/04:00pm 11.7 7.4 7.0 73 2.3 WNW 19 24 10 13 1012.1 1012.8 0.0
12/03:30pm 11.8 6.9 6.9 72 2.4 NW 22 28 12 15 1012.2 1012.9 0.0
12/03:00pm 12.5 8.0 6.8 68 2.8 NW 20 33 11 18 1012.2 1012.9 0.0
12/02:30pm 12.8 8.9 7.3 69 2.8 NW 17 24 9 13 1012.2 1012.9 0.0
12/02:00pm 13.3 9.0 6.9 65 3.2 WNW 19 24 10 13 1012.4 1013.1 0.0
12/01:30pm 13.1 7.7 6.5 64 3.3 NW 24 32 13 17 1012.7 1013.4 0.0
12/01:00pm 13.2 7.8 6.3 63 3.4 WNW 24 32 13 17 1012.8 1013.6 0.0
12/12:30pm 14.0 9.6 7.3 64 3.4 WNW 20 30 11 16 1013.3 1014.0 0.0
12/12:00pm 14.5 10.0 6.3 58 4.1 NW 19 32 10 17 1013.8 1014.5 0.0
12/11:30am 14.2 9.6 6.3 59 3.9 WNW 20 28 11 15 1014.4 1015.2 0.0
12/11:00am 13.0 10.7 7.5 69 2.8 N 9 26 5 14 1015.0 1015.7 0.0
12/10:30am 11.2 10.6 7.3 77 1.9 CALM 0 6 0 3 1015.5 1016.3 0.0
12/10:00am 8.7 8.3 8.3 97 0.2 CALM 0 0 0 0 1015.9 1016.7 0.0
12/09:30am 6.0 5.1 5.9 99 0.0 CALM 0 0 0 0 1016.1 1016.9 0.0
12/09:00am 5.0 3.9 4.9 99 0.0 CALM 0 0 0 0 1016.4 1017.2 0.0
12/08:30am 4.2 2.5 4.1 99 0.0 W 2 7 1 4 1016.6 1017.3 0.0
12/08:00am 3.4 0.8 3.3 99 0.0 E 6 7 3 4 1016.2 1017.0 0.0
12/07:30am 2.7 0.0 2.6 99 0.0 SSW 6 7 3 4 1016.3 1017.1 0.0
12/07:00am 2.0 -0.8 1.9 99 0.0 S 6 9 3 5 1015.9 1016.7 0.0
12/06:52am 1.8 -0.7 1.7 99 0.0 SSW 4 9 2 5 1015.7 1016.5 0.0
12/06:31am 1.2 -0.6 1.1 99 0.0 CALM 0 0 0 0 1016.0 1016.8 0.0
12/06:30am 1.2 -0.6 1.1 99 0.0 CALM 0 0 0 0 1016.0 1016.8 0.0
12/06:00am 0.8 -1.1 0.7 99 0.0 CALM 0 0 0 0 1016.0 1016.8 0.0
12/05:30am 0.3 -2.8 0.2 99 0.0 SW 6 7 3 4 1016.1 1016.9 0.0
12/05:06am 0.0 -2.4 -0.1 99 0.0 NW 2 6 1 3 1016.1 1016.9 0.0
12/05:00am 0.6 -2.1 0.5 99 0.0 NW 4 6 2 3 1016.0 1016.8 0.0
12/04:35am 0.7 -2.3 0.6 99 0.0 WNW 6 9 3 5 1016.0 1016.8 0.0
12/04:30am 0.9 -2.3 0.8 99 0.0 WNW 7 9 4 5 1016.1 1016.9 0.0
12/04:24am 0.7 -2.9 0.6 99 0.0 W 9 9 5 5 1016.0 1016.8 0.0
12/04:00am 1.6 -0.2 1.5 99 0.0 CALM 0 0 0 0 1016.1 1016.9 0.0
12/03:44am 1.8 0.1 1.7 99 0.0 CALM 0 0 0 0 1016.1 1016.9 0.0
12/03:30am 1.1 -0.7 1.0 99 0.0 CALM 0 0 0 0 1016.2 1017.0 0.0
12/03:00am 2.0 0.3 1.9 99 0.0 CALM 0 0 0 0 1016.2 1017.0 0.0
12/02:30am 2.1 0.4 2.0 99 0.0 CALM 0 0 0 0 1016.4 1017.2 0.0
12/02:00am 2.1 0.0 2.0 99 0.0 WNW 2 6 1 3 1017.0 1017.8 0.0
12/01:30am 2.6 1.0 2.5 99 0.0 CALM 0 0 0 0 1017.2 1018.0 0.0
12/01:00am 2.9 0.0 2.8 99 0.0 ESE 7 9 4 5 1017.4 1018.2 0.0
12/12:30am 2.9 1.0 2.8 99 0.0 SW 2 6 1 3 1017.8 1018.6 0.0
12/12:00am 3.1 0.8 3.0 99 0.0 SW 4 7 2 4 1017.6 1018.4 0.0
 
Date/Time
EST
Temp
°C
App
Temp
°C
Dew
Point
°C
Rel
Hum
%
Delta-T
°C
Wind Press
QNH
hPa
Press
MSL
hPa
Rain since
9am
mm
Dir  Spd
km/h
Gust
km/h
Spd
kts
Gust
kts
11/11:30pm 3.1 0.5 3.0 99 0.0 SW 6 7 3 4 1017.6 1018.4 0.0
11/11:00pm 3.4 2.0 3.3 99 0.0 CALM 0 4 0 2 1017.4 1018.2 0.0
11/10:30pm 2.5 0.5 2.4 99 0.0 SW 2 7 1 4 1017.6 1018.4 0.0
11/10:00pm 3.4 2.0 3.3 99 0.0 CALM 0 0 0 0 1017.9 1018.7 0.0
11/09:30pm 2.8 -0.1 2.7 99 0.0 SW 7 9 4 5 1018.0 1018.8 0.0
11/09:00pm 2.8 0.5 2.7 99 0.0 SW 4 9 2 5 1018.0 1018.8 0.0
11/08:30pm 3.7 2.3 3.6 99 0.0 CALM 0 0 0 0 1018.3 1019.1 0.0
11/08:00pm 4.0 2.6 3.7 98 0.1 CALM 0 0 0 0 1018.5 1019.3 0.0
11/07:30pm 4.4 3.0 3.7 95 0.3 CALM 0 0 0 0 1018.6 1019.4 0.0
11/07:00pm 5.9 4.8 4.9 93 0.5 CALM 0 0 0 0 1018.5 1019.3 0.0
11/06:30pm 5.8 4.6 4.6 92 0.5 CALM 0 0 0 0 1018.3 1019.1 0.0
11/06:00pm 6.4 3.8 4.4 87 0.9 SW 7 11 4 6 1017.8 1018.6 0.0
11/05:30pm 8.4 4.8 5.2 80 1.5 W 13 15 7 8 1017.6 1018.4 0.0
11/05:00pm 10.6 7.3 6.4 75 2.0 W 13 17 7 9 1017.4 1018.2 0.0
11/04:30pm 12.5 10.2 5.7 63 3.3 W 7 11 4 6 1017.2 1018.0 0.0
11/04:00pm 12.3 10.0 5.5 63 3.3 SE 7 11 4 6 1016.9 1017.7 0.0
11/03:30pm 13.0 11.3 5.7 61 3.6 NW 4 15 2 8 1017.2 1018.0 0.0
11/03:00pm 12.3 10.1 5.2 62 3.4 W 6 11 3 6 1017.6 1018.4 0.0
11/02:30pm 12.9 9.9 6.0 63 3.4 NW 11 19 6 10 1017.9 1018.7 0.0
11/02:00pm 12.0 9.2 5.0 62 3.3 NNW 9 13 5 7 1018.0 1018.8 0.0
11/01:30pm 11.4 8.5 4.6 63 3.2 N 9 19 5 10 1018.4 1019.2 0.0
11/01:00pm 11.1 8.8 5.6 69 2.6 N 7 11 4 6 1018.8 1019.6 0.0
11/12:30pm 10.0 6.8 5.0 71 2.3 NE 11 17 6 9 1019.5 1020.4 0.0
11/12:00pm 10.6 6.6 4.9 68 2.7 NE 15 26 8 14 1019.7 1020.6 0.0
11/11:30am 9.7 5.8 5.5 75 2.0 NE 15 24 8 13 1020.5 1021.3 0.0
11/11:00am 8.9 4.5 4.5 74 2.0 NE 17 22 9 12 1020.7 1021.5 0.0
11/10:30am 8.5 4.1 4.7 77 1.7 NE 17 26 9 14 1021.2 1022.1 0.0
11/10:00am 8.2 4.5 4.4 77 1.7 NNE 13 20 7 11 1021.7 1022.5 0.0
11/09:30am 8.1 3.3 4.9 80 1.5 NE 19 24 10 13 1021.2 1022.1 0.0
11/09:00am 7.6 3.2 4.6 81 1.4 ENE 17 22 9 12 1021.1 1022.0 0.0
11/08:30am 7.4 4.2 5.0 85 1.1 NE 11 15 6 8 1021.2 1022.1 0.0
11/08:00am 6.4 3.4 5.8 96 0.3 NE 11 17 6 9 1021.1 1022.0 0.0
11/07:30am 4.4 3.1 4.3 99 0.0 CALM 0 0 0 0 1021.1 1022.0 0.0
11/07:00am 3.9 2.5 3.8 99 0.0 CALM 0 0 0 0 1021.1 1022.0 0.0
11/06:30am 3.4 2.0 3.3 99 0.0 CALM 0 0 0 0 1021.2 1022.1 0.0
11/06:12am 3.2 0.6 3.1 99 0.0 ESE 6 7 3 4 1021.1 1022.0 0.0
11/06:00am 2.9 0.2 2.8 99 0.0 SW 6 11 3 6 1021.1 1022.0 0.0
11/05:30am 2.8 0.1 2.7 99 0.0 WSW 6 9 3 5 1021.1 1022.0 0.0
11/05:00am 1.5 -1.1 1.1 97 0.2 ESE 4 9 2 5 1020.5 1021.3 0.0
11/04:30am 3.4 1.5 3.1 98 0.1 ESE 2 7 1 4 1020.5 1021.3 0.0
11/04:00am 4.3 1.7 4.0 98 0.1 N 7 9 4 5 1020.7 1021.5 0.0
11/03:30am 4.9 2.4 4.0 94 0.4 NE 6 7 3 4 1021.0 1021.9 0.0
11/03:00am 5.3 2.8 4.6 95 0.3 NNW 7 7 4 4 1021.4 1022.3 0.0
11/02:30am 5.5 4.2 4.2 91 0.6 CALM 0 0 0 0 1021.6 1022.4 0.0
11/02:00am 5.3 2.7 4.1 92 0.5 WNW 7 9 4 5 1021.8 1022.6 0.0
11/01:30am 5.4 3.7 4.1 91 0.6 NNW 2 7 1 4 1021.7 1022.5 0.0
11/01:00am 4.6 3.3 4.3 98 0.1 CALM 0 0 0 0 1021.8 1022.6 0.0
11/12:30am 4.0 2.6 3.6 97 0.2 CALM 0 0 0 0 1021.9 1022.7 0.0
11/12:00am 4.6 2.5 4.0 96 0.3 ENE 4 9 2 5 1021.6 1022.4 0.0
 
Date/Time
EST
Temp
°C
App
Temp
°C
Dew
Point
°C
Rel
Hum
%
Delta-T
°C
Wind Press
QNH
hPa
Press
MSL
hPa
Rain since
9am
mm
Dir  Spd
km/h
Gust
km/h
Spd
kts
Gust
kts
10/11:30pm 4.6 2.4 3.4 92 0.5 SE 4 7 2 4 1021.3 1022.2 0.0
10/11:00pm 4.5 1.2 2.7 88 0.8 SSE 9 11 5 6 1021.3 1022.2 0.0
10/10:30pm 5.1 3.8 3.9 92 0.5 CALM 0 0 0 0 1021.6 1022.4 0.0
10/10:00pm 4.8 2.1 3.9 94 0.4 S 7 11 4 6 1021.4 1022.3 0.0
10/09:30pm 4.3 0.3 3.0 91 0.6 SSW 13 15 7 8 1021.3 1022.2 0.0
10/09:00pm 5.7 1.8 3.5 86 1.0 S 13 19 7 10 1021.6 1022.4 0.0
10/08:30pm 6.5 1.8 3.3 80 1.4 S 17 20 9 11 1022.0 1022.8 0.0
10/08:00pm 7.0 3.0 3.1 76 1.7 SSE 13 15 7 8 1022.2 1023.1 0.0
10/07:30pm 7.3 2.9 2.8 73 2.0 S 15 20 8 11 1022.2 1023.1 0.0
10/07:00pm 7.4 2.1 3.1 74 1.9 S 20 26 11 14 1021.9 1022.7 0.0
10/06:30pm 7.5 3.3 3.9 78 1.6 SSE 15 20 8 11 1021.3 1022.2 0.0
10/06:00pm 7.7 2.8 3.9 77 1.7 SE 19 30 10 16 1020.7 1021.5 0.0
10/05:30pm 7.9 2.9 3.4 73 2.0 SE 19 28 10 15 1020.5 1021.3 0.0
10/05:00pm 8.3 3.7 3.6 72 2.1 SE 17 22 9 12 1020.2 1021.0 0.0
10/04:30pm 8.2 3.3 3.9 74 1.9 SE 19 28 10 15 1020.2 1021.0 0.0
10/04:00pm 9.0 3.8 3.8 70 2.3 SE 20 32 11 17 1020.0 1020.8 0.0
10/03:30pm 9.4 2.7 3.6 67 2.6 SSE 28 39 15 21 1019.6 1020.5 0.0
10/03:00pm 11.1 5.0 4.6 64 3.0 SE 26 35 14 19 1019.5 1020.4 0.0
10/02:30pm 10.8 4.3 4.5 65 2.9 SSE 28 39 15 21 1019.5 1020.4 0.0
10/02:00pm 9.7 3.6 4.9 72 2.2 SSE 26 37 14 20 1019.6 1020.5 0.0
10/01:30pm 9.6 3.1 4.6 71 2.3 S 28 35 15 19 1019.9 1020.7 0.0
10/01:00pm 9.8 2.6 4.8 71 2.3 SSE 32 41 17 22 1019.9 1020.7 0.0
10/12:30pm 10.3 3.2 5.7 73 2.2 SSE 32 44 17 24 1020.1 1020.9 0.0
10/12:00pm 11.8 5.9 7.3 74 2.2 SSE 28 39 15 21 1020.1 1020.9 0.0
10/11:30am 9.8 3.6 6.2 78 1.7 SE 28 41 15 22 1020.4 1021.2 0.0
10/11:00am 8.2 0.7 4.6 78 1.6 SSE 33 44 18 24 1020.4 1021.2 0.0
10/10:35am 8.5 1.8 5.8 83 1.3 SSE 30 48 16 26 1020.3 1021.1 0.0
10/10:30am 8.3 1.9 5.4 82 1.4 SSE 28 39 15 21 1020.3 1021.1 0.0
10/10:21am 8.7 2.2 6.5 86 1.1 SSE 30 43 16 23 1020.2 1021.0 0.0
10/10:00am 7.5 -0.1 6.0 90 0.7 SSE 35 44 19 24 1020.0 1020.8 0.0
10/09:30am 7.3 0.7 6.2 93 0.5 SSE 30 43 16 23 1019.7 1020.6 0.0
10/09:00am 6.9 -0.3 6.0 94 0.4 S 33 44 18 24 1019.3 1020.1 30.8
10/08:30am 6.9 0.1 6.8 99 0.0 S 32 41 17 22 1019.0 1019.8 30.8
10/08:00am 6.9 0.8 6.8 99 0.0 SSE 28 35 15 19 1018.5 1019.3 30.6
10/07:30am 7.1 1.4 6.7 97 0.2 SSE 26 35 14 19 1018.1 1019.0 30.6
10/07:00am 6.9 1.6 6.8 99 0.0 SSE 24 32 13 17 1017.5 1018.3 30.6
10/06:56am 6.9 2.0 6.8 99 0.0 SSE 22 30 12 16 1017.4 1018.2 30.6
10/06:30am 6.5 1.7 5.8 95 0.3 SSE 20 26 11 14 1016.9 1017.7 30.6
10/06:00am 6.1 1.2 5.1 93 0.5 S 20 26 11 14 1016.4 1017.2 30.6
10/05:30am 6.3 0.6 4.9 91 0.6 S 24 30 13 16 1016.0 1016.8 30.6
10/05:00am 6.7 0.0 5.7 93 0.5 S 30 35 16 19 1015.8 1016.6 30.6
10/04:43am 6.6 -0.1 5.6 93 0.5 S 30 41 16 22 1015.6 1016.4 30.6
10/04:30am 6.8 -0.2 6.2 96 0.3 S 32 41 17 22 1015.4 1016.1 30.6
10/04:00am 7.1 0.3 6.7 97 0.2 S 32 43 17 23 1015.0 1015.7 30.6
10/03:48am 7.1 1.1 7.0 99 0.0 S 28 35 15 19 1015.0 1015.7 30.2
10/03:30am 7.1 0.3 6.7 97 0.2 SSE 32 43 17 23 1014.6 1015.4 30.2
10/03:00am 7.4 -1.7 5.9 90 0.7 SSE 43 56 23 30 1014.1 1014.9 30.2
10/02:32am 7.6 -0.7 6.1 90 0.7 SSE 39 57 21 31 1014.0 1014.7 30.2
10/02:30am 7.5 -0.4 6.1 91 0.7 SSE 37 48 20 26 1014.1 1014.9 30.2
10/02:00am 7.9 -0.3 6.5 91 0.7 SE 39 52 21 28 1013.8 1014.5 30.2
10/01:30am 7.8 1.7 6.7 93 0.5 SSE 28 35 15 19 1013.7 1014.4 30.2
10/01:27am 7.8 1.4 6.9 94 0.4 SSE 30 44 16 24 1013.7 1014.4 30.2
10/01:17am 7.7 1.7 7.1 96 0.3 SSE 28 39 15 21 1013.8 1014.5 30.2
10/01:06am 7.7 1.7 7.0 95 0.3 SSE 28 39 15 21 1013.6 1014.3 30.2
10/01:00am 7.4 1.7 6.7 95 0.3 SSE 26 37 14 20 1013.7 1014.4 30.2
10/12:56am 7.2 1.4 6.3 94 0.4 SSE 26 35 14 19 1013.7 1014.4 30.2
10/12:45am 7.1 0.1 6.0 93 0.5 SSE 32 50 17 27 1013.8 1014.5 30.2
10/12:36am 7.1 -1.2 5.9 92 0.6 SSE 39 52 21 28 1014.0 1014.7 30.0
10/12:30am 7.2 -1.9 5.8 91 0.7 SSE 43 63 23 34 1014.0 1014.7 29.8
10/12:08am 7.8 0.2 7.5 98 0.1 SSE 37 56 20 30 1013.7 1014.4 29.6
10/12:00am 7.8 -1.2 7.4 97 0.2 SSE 44 56 24 30 1013.6 1014.3 29.6
 
Date/Time
EST
Temp
°C
App
Temp
°C
Dew
Point
°C
Rel
Hum
%
Delta-T
°C
Wind Press
QNH
hPa
Press
MSL
hPa
Rain since
9am
mm
Dir  Spd
km/h
Gust
km/h
Spd
kts
Gust
kts
09/11:30pm 7.9 0.0 7.8 99 0.0 SSE 39 57 21 31 1013.0 1013.8 29.2
09/11:25pm 8.0 0.1 7.9 99 0.0 SSE 39 57 21 31 1013.1 1013.9 29.2
09/11:00pm 7.9 1.1 7.8 99 0.0 SSE 33 44 18 24 1013.1 1013.9 28.4
09/10:30pm 7.9 1.1 7.8 99 0.0 SSE 33 43 18 23 1012.9 1013.7 28.0
09/10:00pm 7.9 1.1 7.8 99 0.0 SSE 33 44 18 24 1012.7 1013.4 27.6
09/09:30pm 7.8 1.2 7.7 99 0.0 SSE 32 41 17 22 1012.6 1013.3 26.8
09/09:00pm 7.5 0.6 7.4 99 0.0 S 33 44 18 24 1012.5 1013.2 26.8
09/08:30pm 7.2 0.3 7.1 99 0.0 S 33 48 18 26 1012.4 1013.1 26.2
09/08:09pm 7.2 -0.2 6.8 97 0.2 S 35 48 19 26 1012.2 1012.9 25.8

Latest Capital City Observations: Canberra | Sydney | Melbourne | Brisbane | Adelaide | Perth | Hobart | Darwin

Other formats

Comma delimited format used in spreadsheet applications
http://www.bom.gov.au/fwo/IDN60903/IDN60903.95716.axf

JavaScript Object Notation format (JSON) in row-major order
http://www.bom.gov.au/fwo/IDN60903/IDN60903.95716.json

Data quality

Most of these data are generated automatically and are frequently updated. Quality checks on data are not normally performed. It is possible for incorrect values to appear. Refer to information at About Latest Weather Observations and please check the disclaimer before using these data.